sensor_id;sensor_type;location;lat;lon;timestamp;temperature;humidity
50690;DHT22;71367;48.298;11.238;2024-03-08T00:00:44;0.30;99.90
50690;DHT22;71367;48.298;11.238;2024-03-08T00:15:47;0.10;99.90
50690;DHT22;71367;48.298;11.238;2024-03-08T00:30:50;0.10;99.90
50690;DHT22;71367;48.298;11.238;2024-03-08T00:45:53;0.00;99.90
50690;DHT22;71367;48.298;11.238;2024-03-08T01:00:57;0.00;99.90
50690;DHT22;71367;48.298;11.238;2024-03-08T01:16:01;-0.10;99.90
50690;DHT22;71367;48.298;11.238;2024-03-08T01:31:05;-0.10;99.90
50690;DHT22;71367;48.298;11.238;2024-03-08T01:46:09;-0.20;99.90
50690;DHT22;71367;48.298;11.238;2024-03-08T02:01:15;-0.30;99.90
50690;DHT22;71367;48.298;11.238;2024-03-08T02:16:21;-0.30;99.90
50690;DHT22;71367;48.298;11.238;2024-03-08T02:31:25;-0.30;99.90
50690;DHT22;71367;48.298;11.238;2024-03-08T02:46:28;-0.40;99.90
50690;DHT22;71367;48.298;11.238;2024-03-08T03:01:33;-0.40;99.90
50690;DHT22;71367;48.298;11.238;2024-03-08T03:16:38;-0.50;99.90
50690;DHT22;71367;48.298;11.238;2024-03-08T03:31:41;-0.50;99.90
50690;DHT22;71367;48.298;11.238;2024-03-08T03:46:44;-0.60;99.90
50690;DHT22;71367;48.298;11.238;2024-03-08T04:01:47;-0.60;99.90
50690;DHT22;71367;48.298;11.238;2024-03-08T04:16:51;-0.70;99.90
50690;DHT22;71367;48.298;11.238;2024-03-08T04:31:54;-0.70;99.90
50690;DHT22;71367;48.298;11.238;2024-03-08T04:46:58;-0.70;99.90
50690;DHT22;71367;48.298;11.238;2024-03-08T05:02:02;-0.70;99.90
50690;DHT22;71367;48.298;11.238;2024-03-08T05:17:05;-0.60;99.90
50690;DHT22;71367;48.298;11.238;2024-03-08T05:32:09;-0.30;99.90
50690;DHT22;71367;48.298;11.238;2024-03-08T05:47:13;-0.10;99.90
50690;DHT22;71367;48.298;11.238;2024-03-08T06:02:17;0.00;99.90
50690;DHT22;71367;48.298;11.238;2024-03-08T06:17:21;0.10;99.90
50690;DHT22;71367;48.298;11.238;2024-03-08T06:32:27;0.10;99.90
50690;DHT22;71367;48.298;11.238;2024-03-08T06:47:30;0.20;99.90
50690;DHT22;71367;48.298;11.238;2024-03-08T07:02:33;0.30;99.90
50690;DHT22;71367;48.298;11.238;2024-03-08T07:17:37;0.50;99.90
50690;DHT22;71367;48.298;11.238;2024-03-08T07:32:41;0.70;99.90
50690;DHT22;71367;48.298;11.238;2024-03-08T07:47:45;0.90;99.90
50690;DHT22;71367;48.298;11.238;2024-03-08T08:02:48;1.20;99.90
50690;DHT22;71367;48.298;11.238;2024-03-08T08:17:52;1.60;99.90
50690;DHT22;71367;48.298;11.238;2024-03-08T08:32:55;1.80;99.90
50690;DHT22;71367;48.298;11.238;2024-03-08T08:48:02;2.20;99.90
50690;DHT22;71367;48.298;11.238;2024-03-08T09:03:07;2.70;99.90
50690;DHT22;71367;48.298;11.238;2024-03-08T09:18:10;3.40;99.90
50690;DHT22;71367;48.298;11.238;2024-03-08T09:33:13;4.20;99.90
50690;DHT22;71367;48.298;11.238;2024-03-08T09:48:22;4.70;99.90
50690;DHT22;71367;48.298;11.238;2024-03-08T10:03:25;5.30;99.90
50690;DHT22;71367;48.298;11.238;2024-03-08T10:18:28;5.70;99.90
50690;DHT22;71367;48.298;11.238;2024-03-08T10:33:32;5.60;99.90
50690;DHT22;71367;48.298;11.238;2024-03-08T10:48:40;6.80;99.90
50690;DHT22;71367;48.298;11.238;2024-03-08T11:03:48;7.70;99.90
50690;DHT22;71367;48.298;11.238;2024-03-08T11:18:55;8.50;99.90
50690;DHT22;71367;48.298;11.238;2024-03-08T11:34:02;9.00;99.90
50690;DHT22;71367;48.298;11.238;2024-03-08T11:49:05;9.10;99.90
50690;DHT22;71367;48.298;11.238;2024-03-08T12:04:12;10.00;99.20
50690;DHT22;71367;48.298;11.238;2024-03-08T12:19:15;10.40;97.60
50690;DHT22;71367;48.298;11.238;2024-03-08T12:34:19;10.70;94.60
50690;DHT22;71367;48.298;11.238;2024-03-08T12:49:22;11.00;94.30
50690;DHT22;71367;48.298;11.238;2024-03-08T13:04:25;11.50;91.90
50690;DHT22;71367;48.298;11.238;2024-03-08T13:19:28;11.50;90.70
50690;DHT22;71367;48.298;11.238;2024-03-08T13:34:32;11.70;87.10
50690;DHT22;71367;48.298;11.238;2024-03-08T13:49:37;11.60;83.40
50690;DHT22;71367;48.298;11.238;2024-03-08T14:04:41;12.00;80.10
50690;DHT22;71367;48.298;11.238;2024-03-08T14:19:44;11.90;79.60
50690;DHT22;71367;48.298;11.238;2024-03-08T14:34:47;11.90;79.00
50690;DHT22;71367;48.298;11.238;2024-03-08T14:49:51;12.00;77.60
50690;DHT22;71367;48.298;11.238;2024-03-08T15:04:54;12.10;76.70
50690;DHT22;71367;48.298;11.238;2024-03-08T15:20:00;11.80;76.40
50690;DHT22;71367;48.298;11.238;2024-03-08T15:35:04;11.70;77.50
50690;DHT22;71367;48.298;11.238;2024-03-08T15:50:09;11.30;78.80
50690;DHT22;71367;48.298;11.238;2024-03-08T16:05:14;10.90;77.00
50690;DHT22;71367;48.298;11.238;2024-03-08T16:20:18;10.40;81.10
50690;DHT22;71367;48.298;11.238;2024-03-08T16:35:23;9.70;83.20
50690;DHT22;71367;48.298;11.238;2024-03-08T16:50:26;9.20;86.90
50690;DHT22;71367;48.298;11.238;2024-03-08T17:05:33;8.40;90.30
50690;DHT22;71367;48.298;11.238;2024-03-08T17:20:37;7.50;92.20
50690;DHT22;71367;48.298;11.238;2024-03-08T17:35:41;6.90;94.60
50690;DHT22;71367;48.298;11.238;2024-03-08T17:50:47;6.30;97.40
50690;DHT22;71367;48.298;11.238;2024-03-08T18:05:50;5.70;99.90
50690;DHT22;71367;48.298;11.238;2024-03-08T18:20:54;5.30;99.90
50690;DHT22;71367;48.298;11.238;2024-03-08T18:35:57;5.00;99.90
50690;DHT22;71367;48.298;11.238;2024-03-08T18:51:00;4.80;99.90
50690;DHT22;71367;48.298;11.238;2024-03-08T19:06:04;4.60;99.90
50690;DHT22;71367;48.298;11.238;2024-03-08T19:21:08;4.50;99.90
50690;DHT22;71367;48.298;11.238;2024-03-08T19:36:11;4.30;99.90
50690;DHT22;71367;48.298;11.238;2024-03-08T19:51:19;4.00;99.90
50690;DHT22;71367;48.298;11.238;2024-03-08T20:06:23;3.90;99.90
50690;DHT22;71367;48.298;11.238;2024-03-08T20:21:26;3.70;99.90
50690;DHT22;71367;48.298;11.238;2024-03-08T20:36:29;3.50;99.90
50690;DHT22;71367;48.298;11.238;2024-03-08T20:51:33;3.30;99.90
50690;DHT22;71367;48.298;11.238;2024-03-08T21:06:37;3.10;99.90
50690;DHT22;71367;48.298;11.238;2024-03-08T21:21:42;3.00;99.90
50690;DHT22;71367;48.298;11.238;2024-03-08T21:36:45;2.80;99.90
50690;DHT22;71367;48.298;11.238;2024-03-08T21:51:48;2.70;99.90
50690;DHT22;71367;48.298;11.238;2024-03-08T22:06:53;2.50;99.90
50690;DHT22;71367;48.298;11.238;2024-03-08T22:21:58;2.40;99.90
50690;DHT22;71367;48.298;11.238;2024-03-08T22:37:01;2.20;99.90
50690;DHT22;71367;48.298;11.238;2024-03-08T22:52:06;2.00;99.90
50690;DHT22;71367;48.298;11.238;2024-03-08T23:07:10;1.90;99.90
50690;DHT22;71367;48.298;11.238;2024-03-08T23:22:13;1.70;99.90
50690;DHT22;71367;48.298;11.238;2024-03-08T23:37:16;1.70;99.90
50690;DHT22;71367;48.298;11.238;2024-03-08T23:52:19;1.60;99.90
